createdAt,value
2023-05-05T00:01:50.288Z,14.17
2023-05-05T00:06:53.398Z,14.18
2023-05-05T00:11:56.281Z,14.16
2023-05-05T00:16:58.986Z,14.12
2023-05-05T00:22:01.858Z,14.10
2023-05-05T00:27:05.096Z,14.09
2023-05-05T00:32:08.222Z,14.00
2023-05-05T00:37:11.625Z,13.91
2023-05-05T00:42:14.382Z,13.80
2023-05-05T00:47:17.660Z,13.67
2023-05-05T00:52:20.533Z,13.62
2023-05-05T00:57:24.935Z,13.56
2023-05-05T01:02:28.207Z,13.45
2023-05-05T01:07:38.081Z,13.35
2023-05-05T01:12:58.808Z,13.15
2023-05-05T01:18:42.808Z,13.09
2023-05-05T01:24:03.600Z,13.02
2023-05-05T01:29:46.390Z,12.90
2023-05-05T01:34:58.901Z,12.81
2023-05-05T01:40:06.792Z,12.72
2023-05-05T01:45:12.099Z,12.68
2023-05-05T01:50:15.524Z,12.63
2023-05-05T01:55:20.117Z,12.55
2023-05-05T02:00:25.544Z,12.64
2023-05-05T02:05:30.213Z,12.63
2023-05-05T02:10:33.573Z,12.67
2023-05-05T02:15:38.683Z,12.80
2023-05-05T02:20:41.983Z,12.97
2023-05-05T02:25:49.401Z,13.10
2023-05-05T02:31:00.876Z,13.28
2023-05-05T02:36:22.154Z,13.47
2023-05-05T02:41:35.121Z,13.47
2023-05-05T02:46:43.715Z,13.72
2023-05-05T02:51:46.529Z,13.86
2023-05-05T02:57:01.346Z,14.17
2023-05-05T03:02:22.838Z,14.54
2023-05-05T03:07:31.132Z,14.71
2023-05-05T03:12:49.870Z,15.00
2023-05-05T03:17:59.900Z,15.09
2023-05-05T03:23:03.872Z,15.42
2023-05-05T03:28:08.107Z,16.05
2023-05-05T03:33:12.260Z,17.34
2023-05-05T03:38:17.008Z,18.43
2023-05-05T03:43:21.015Z,19.58
2023-05-05T03:48:24.352Z,20.51
2023-05-05T03:53:28.088Z,21.12
2023-05-05T03:58:31.298Z,21.94
2023-05-05T04:03:34.382Z,22.54
2023-05-05T04:08:37.651Z,23.14
2023-05-05T04:13:41.641Z,23.78
2023-05-05T04:18:44.758Z,24.22
2023-05-05T04:23:47.984Z,24.35
2023-05-05T04:28:50.716Z,23.63
2023-05-05T04:33:55.401Z,22.21
2023-05-05T04:38:58.159Z,21.45
2023-05-05T04:44:01.184Z,21.09
2023-05-05T04:49:05.346Z,21.00
2023-05-05T04:54:09.547Z,21.03
2023-05-05T04:59:12.401Z,20.99
2023-05-05T05:04:18.849Z,20.95
2023-05-05T05:09:21.714Z,20.84
2023-05-05T05:14:24.620Z,20.77
2023-05-05T05:19:27.458Z,20.90
2023-05-05T05:24:30.419Z,21.09
2023-05-05T05:29:33.264Z,21.42
2023-05-05T05:34:36.868Z,21.35
2023-05-05T05:39:43.510Z,22.50
2023-05-05T05:44:47.986Z,22.79
2023-05-05T05:49:51.859Z,25.89
2023-05-05T05:54:56.586Z,27.48
2023-05-05T06:00:01.942Z,27.82
2023-05-05T06:05:14.304Z,28.93
2023-05-05T06:10:26.460Z,29.46
2023-05-05T06:15:34.146Z,30.09
2023-05-05T06:20:38.971Z,30.41
2023-05-05T06:25:42.122Z,31.12
2023-05-05T06:30:44.719Z,31.10
2023-05-05T06:35:48.040Z,31.40
2023-05-05T06:40:51.009Z,31.68
2023-05-05T06:45:54.115Z,32.08
2023-05-05T06:50:57.209Z,31.52
2023-05-05T06:55:59.946Z,31.36
2023-05-05T07:01:02.691Z,31.34
2023-05-05T07:06:05.477Z,31.00
2023-05-05T07:11:08.254Z,31.25
2023-05-05T07:16:11.143Z,31.37
2023-05-05T07:21:13.921Z,31.60
2023-05-05T07:26:16.829Z,32.10
2023-05-05T07:31:22.631Z,32.89
2023-05-05T07:36:25.631Z,32.27
2023-05-05T07:41:28.355Z,32.30
2023-05-05T07:46:31.122Z,33.07
2023-05-05T07:51:34.631Z,31.41
2023-05-05T07:56:37.929Z,32.37
2023-05-05T08:01:40.808Z,32.25
2023-05-05T08:06:43.666Z,31.89
2023-05-05T08:11:46.468Z,32.36
2023-05-05T08:16:49.340Z,33.11
2023-05-05T08:21:54.026Z,33.22
2023-05-05T08:26:57.160Z,33.02
2023-05-05T08:32:00.529Z,32.97
2023-05-05T08:37:03.432Z,33.44
2023-05-05T08:42:06.583Z,32.84
2023-05-05T08:47:11.400Z,31.51
2023-05-05T08:52:24.529Z,30.51
2023-05-05T08:57:56.760Z,31.07
2023-05-05T09:03:00.439Z,31.66
2023-05-05T09:08:08.458Z,30.06
2023-05-05T09:13:11.357Z,28.35
2023-05-05T09:18:14.751Z,27.39
2023-05-05T09:23:21.243Z,27.09
2023-05-05T09:28:24.654Z,27.50
2023-05-05T09:33:31.933Z,28.34
2023-05-05T09:38:35.811Z,28.97
2023-05-05T09:43:55.500Z,30.14
2023-05-05T09:49:12.626Z,30.25
2023-05-05T09:54:29.399Z,30.51
2023-05-05T09:59:32.501Z,30.79
2023-05-05T10:04:36.380Z,30.81
2023-05-05T10:09:38.944Z,31.56
2023-05-05T10:14:42.178Z,31.60
2023-05-05T10:19:46.060Z,31.61
2023-05-05T10:25:02.848Z,30.99
2023-05-05T10:30:08.218Z,30.76
2023-05-05T10:35:16.351Z,30.03
2023-05-05T10:40:22.722Z,28.82
2023-05-05T10:45:25.734Z,28.25
2023-05-05T10:50:42.047Z,28.82
2023-05-05T10:56:02.997Z,29.29
2023-05-05T11:01:09.457Z,28.17
2023-05-05T11:06:13.819Z,28.91
2023-05-05T11:11:16.590Z,29.20
2023-05-05T11:16:47.633Z,29.12
2023-05-05T11:22:09.089Z,28.11
2023-05-05T11:27:11.887Z,27.85
2023-05-05T11:32:16.179Z,26.88
2023-05-05T11:37:24.602Z,27.36
2023-05-05T11:42:30.571Z,26.66
2023-05-05T11:47:35.287Z,26.07
2023-05-05T11:52:38.560Z,25.78
2023-05-05T11:57:41.610Z,25.57
2023-05-05T12:02:59.942Z,25.46
2023-05-05T12:08:03.159Z,25.76
2023-05-05T12:13:19.083Z,25.86
2023-05-05T12:18:30.716Z,25.80
2023-05-05T12:23:42.698Z,25.70
2023-05-05T12:28:58.419Z,25.49
2023-05-05T12:34:14.802Z,25.42
2023-05-05T12:39:26.241Z,25.20
2023-05-05T12:44:42.171Z,25.42
2023-05-05T12:49:55.157Z,25.03
2023-05-05T12:55:05.526Z,24.88
2023-05-05T13:00:18.577Z,24.50
2023-05-05T13:05:39.243Z,24.36
2023-05-05T13:11:00.933Z,24.52
2023-05-05T13:16:10.621Z,24.35
2023-05-05T13:21:17.156Z,24.06
2023-05-05T13:26:20.809Z,24.01
2023-05-05T13:31:24.820Z,24.05
2023-05-05T13:36:27.633Z,23.74
2023-05-05T13:41:30.599Z,23.83
2023-05-05T13:46:33.985Z,23.93
2023-05-05T13:52:05.917Z,23.87
2023-05-05T13:57:26.812Z,23.81
2023-05-05T14:02:29.605Z,23.59
2023-05-05T14:07:33.130Z,23.23
2023-05-05T14:12:49.162Z,23.22
2023-05-05T14:17:55.247Z,23.22
2023-05-05T14:23:01.494Z,23.09
2023-05-05T14:28:09.793Z,22.98
2023-05-05T14:33:19.275Z,22.84
2023-05-05T14:38:23.592Z,22.88
2023-05-05T14:48:49.857Z,22.85
2023-05-05T14:53:56.495Z,22.76
2023-05-05T14:59:00.191Z,22.54
2023-05-05T15:04:03.237Z,22.56
2023-05-05T15:09:07.110Z,22.48
2023-05-05T15:14:10.272Z,22.41
2023-05-05T15:19:12.978Z,22.30
2023-05-05T15:24:16.255Z,22.30
2023-05-05T15:29:18.977Z,22.13
2023-05-05T15:34:22.897Z,21.66
2023-05-05T15:39:25.813Z,21.18
2023-05-05T15:44:30.652Z,20.90
2023-05-05T15:49:38.912Z,20.76
2023-05-05T15:54:42.153Z,20.52
2023-05-05T15:59:45.125Z,20.26
2023-05-05T16:04:50.871Z,20.03
2023-05-05T16:09:55.339Z,19.91
2023-05-05T16:14:59.094Z,19.79
2023-05-05T16:20:01.999Z,19.62
2023-05-05T16:25:06.761Z,19.39
2023-05-05T16:30:14.038Z,19.26
2023-05-05T16:35:18.770Z,19.15
2023-05-05T16:40:22.815Z,19.09
2023-05-05T16:45:26.652Z,19.20
2023-05-05T16:50:29.671Z,19.26
2023-05-05T16:55:34.897Z,19.23
2023-05-05T17:00:38.026Z,19.18
2023-05-05T17:05:41.516Z,19.25
2023-05-05T17:10:45.872Z,19.32
2023-05-05T17:15:50.413Z,19.35
2023-05-05T17:20:54.021Z,19.34
2023-05-05T17:25:59.096Z,19.38
2023-05-05T17:31:04.639Z,19.33
2023-05-05T17:36:10.619Z,19.34
2023-05-05T17:41:14.554Z,19.33
2023-05-05T17:46:17.649Z,19.34
2023-05-05T17:51:20.678Z,19.32
2023-05-05T17:56:23.735Z,19.32
2023-05-05T18:01:28.156Z,19.28
2023-05-05T18:06:31.126Z,19.28
2023-05-05T18:11:35.513Z,19.25
2023-05-05T18:16:38.517Z,19.22
2023-05-05T18:21:43.183Z,19.19
2023-05-05T18:26:50.780Z,19.07
2023-05-05T18:31:55.037Z,18.92
2023-05-05T18:36:57.969Z,18.76
2023-05-05T18:42:00.879Z,18.54
2023-05-05T18:47:03.863Z,18.33
2023-05-05T18:52:06.856Z,18.17
2023-05-05T18:57:09.494Z,18.04
2023-05-05T19:02:12.216Z,17.85
2023-05-05T19:07:24.099Z,17.68
2023-05-05T19:12:30.908Z,17.53
2023-05-05T19:17:33.707Z,17.45
2023-05-05T19:22:37.006Z,17.39
2023-05-05T19:27:39.886Z,17.37
2023-05-05T19:32:42.644Z,17.30
2023-05-05T19:37:46.216Z,17.16
2023-05-05T19:42:49.251Z,17.05
2023-05-05T19:47:52.845Z,16.99
2023-05-05T19:52:55.896Z,17.00
2023-05-05T19:57:58.657Z,16.82
2023-05-05T20:03:02.377Z,16.67
2023-05-05T20:08:06.008Z,16.49
2023-05-05T20:13:08.971Z,16.32
2023-05-05T20:18:11.771Z,16.27
2023-05-05T20:23:14.607Z,16.17
2023-05-05T20:28:17.486Z,16.05
2023-05-05T20:33:20.313Z,15.97
2023-05-05T20:38:23.232Z,15.83
2023-05-05T20:43:26.093Z,15.84
2023-05-05T20:48:30.075Z,15.80
2023-05-05T20:53:33.397Z,15.77
2023-05-05T20:58:36.644Z,15.72
2023-05-05T21:03:39.538Z,15.63
2023-05-05T21:08:42.297Z,15.50
2023-05-05T21:13:44.963Z,15.39
2023-05-05T21:18:47.714Z,15.41
2023-05-05T21:23:50.388Z,15.38
2023-05-05T21:28:53.372Z,15.45
2023-05-05T21:33:56.233Z,15.39
2023-05-05T21:39:00.359Z,15.42
2023-05-05T21:44:03.351Z,15.47
2023-05-05T21:49:16.979Z,15.39
2023-05-05T21:54:19.703Z,15.20
2023-05-05T21:59:22.400Z,15.10
2023-05-05T22:04:25.097Z,15.00
2023-05-05T22:09:28.055Z,14.86
2023-05-05T22:14:31.025Z,14.78
2023-05-05T22:19:33.805Z,14.79
2023-05-05T22:24:36.611Z,14.73
2023-05-05T22:29:39.472Z,14.65
2023-05-05T22:34:42.330Z,14.63
2023-05-05T22:39:45.168Z,14.72
2023-05-05T22:44:48.042Z,14.76
2023-05-05T22:49:51.095Z,14.77
2023-05-05T22:54:53.796Z,14.74
2023-05-05T22:59:56.637Z,14.73
2023-05-05T23:04:59.268Z,14.68
2023-05-05T23:10:02.399Z,14.64
2023-05-05T23:15:06.547Z,14.55
2023-05-05T23:20:12.295Z,14.46
2023-05-05T23:25:15.383Z,14.36
2023-05-05T23:30:18.540Z,14.33
2023-05-05T23:35:21.702Z,14.36
2023-05-05T23:40:24.555Z,14.36
2023-05-05T23:45:27.391Z,14.46
2023-05-05T23:50:30.608Z,14.47
2023-05-05T23:55:33.405Z,14.37
